Time;durP1;ratioP1;P1;durP2;ratioP2;P2;SDS_P1;SDS_P2;PMS_P1;PMS_P2;Temp;Humidity;BMP_temperature;BMP_pressure;BME280_temperature;BME280_humidity;BME280_pressure;Samples;Min_cycle;Max_cycle;Signal;HPM_P1;HPM_P2
2022/10/06 00:00:36;;;;;;;4.00;2.50;;;11.20;99.90;;;;;;4973065;28;20196;-71
2022/10/06 00:03:02;;;;;;;3.70;2.80;;;11.20;99.90;;;;;;4973613;28;20558;-71
2022/10/06 00:05:28;;;;;;;4.83;2.73;;;11.20;99.90;;;;;;4972779;28;20415;-71
2022/10/06 00:07:54;;;;;;;4.80;3.10;;;11.20;99.90;;;;;;4973609;28;20422;-71
2022/10/06 00:10:20;;;;;;;3.50;2.90;;;11.10;99.90;;;;;;4973063;28;20176;-71
2022/10/06 00:12:48;;;;;;;3.13;2.53;;;11.10;99.90;;;;;;4973289;28;20558;-71
2022/10/06 00:15:16;;;;;;;7.43;1.90;;;11.10;99.90;;;;;;4972831;28;20923;-71
2022/10/06 00:17:42;;;;;;;3.07;2.53;;;11.10;99.90;;;;;;4973158;28;20574;-72
2022/10/06 00:20:09;;;;;;;4.60;2.60;;;11.00;99.90;;;;;;4973213;28;20507;-73
2022/10/06 00:22:37;;;;;;;10.17;2.83;;;11.00;99.90;;;;;;4970667;28;20235;-73
2022/10/06 00:25:03;;;;;;;3.20;2.90;;;11.00;99.90;;;;;;4973037;28;20851;-72
2022/10/06 00:27:37;;;;;;;10.63;3.20;;;10.90;99.90;;;;;;4972503;28;20428;-71
2022/10/06 00:30:05;;;;;;;3.13;2.57;;;10.90;99.90;;;;;;4972955;28;20438;-71
2022/10/06 00:32:30;;;;;;;3.73;2.63;;;10.90;99.90;;;;;;4972524;28;20972;-71
2022/10/06 00:34:57;;;;;;;4.53;2.83;;;10.90;99.90;;;;;;4973139;28;20482;-71
2022/10/06 00:37:24;;;;;;;2.47;2.27;;;10.90;99.90;;;;;;4972467;28;20270;-71
2022/10/06 00:39:50;;;;;;;2.60;2.40;;;10.90;99.90;;;;;;4964952;28;20794;-71
2022/10/06 00:42:24;;;;;;;5.50;2.77;;;10.90;99.90;;;;;;4972472;28;20459;-71
2022/10/06 00:44:49;;;;;;;5.60;3.00;;;10.90;99.90;;;;;;4972881;28;20712;-71
2022/10/06 00:47:16;;;;;;;3.73;2.73;;;10.90;99.90;;;;;;4972591;28;20491;-71
2022/10/06 00:49:44;;;;;;;7.00;2.90;;;10.90;99.90;;;;;;4972628;28;20271;-72
2022/10/06 00:52:13;;;;;;;3.10;2.33;;;10.90;99.90;;;;;;4972362;28;20451;-71
2022/10/06 00:54:39;;;;;;;5.30;2.87;;;10.90;99.90;;;;;;4972602;28;20510;-71
2022/10/06 00:57:06;;;;;;;4.33;2.80;;;10.80;99.90;;;;;;4972586;28;20908;-71
2022/10/06 00:59:34;;;;;;;3.20;2.90;;;10.80;99.90;;;;;;4972458;28;20427;-71
2022/10/06 02:32:38;;;;;;;5.40;2.70;;;10.40;99.90;;;;;;5271424;23;20495;-70
2022/10/06 02:35:05;;;;;;;4.20;3.03;;;10.40;99.90;;;;;;4978954;28;20419;-70
2022/10/06 02:37:32;;;;;;;9.27;2.80;;;10.40;99.90;;;;;;4964090;28;20822;-71
2022/10/06 02:39:57;;;;;;;13.33;3.20;;;10.30;99.90;;;;;;4968593;28;20417;-69
2022/10/06 02:42:23;;;;;;;9.33;3.17;;;10.40;99.90;;;;;;4963246;28;20510;-70
2022/10/06 02:44:50;;;;;;;3.60;2.80;;;10.40;99.90;;;;;;4972495;28;20285;-70
2022/10/06 02:47:17;;;;;;;3.20;2.60;;;10.40;99.90;;;;;;4963032;28;20538;-70
2022/10/06 02:49:43;;;;;;;3.57;3.27;;;10.50;99.90;;;;;;4971410;28;20439;-66
2022/10/06 02:52:09;;;;;;;3.67;3.37;;;10.40;99.90;;;;;;4963091;28;20906;-70
2022/10/06 02:54:35;;;;;;;4.00;2.70;;;10.40;99.90;;;;;;4968814;28;20531;-70
2022/10/06 02:57:01;;;;;;;8.70;3.53;;;10.40;99.90;;;;;;4967671;28;20421;-70
2022/10/06 02:59:27;;;;;;;3.90;3.13;;;10.40;99.90;;;;;;4966575;28;20419;-70
2022/10/06 03:01:53;;;;;;;4.60;3.80;;;10.30;99.90;;;;;;4966351;28;20210;-70
2022/10/06 03:04:19;;;;;;;2.67;2.47;;;10.30;99.90;;;;;;4959507;28;20176;-71
2022/10/06 03:06:44;;;;;;;8.97;2.90;;;10.30;99.90;;;;;;4967317;28;20494;-70
2022/10/06 03:09:10;;;;;;;3.93;3.53;;;10.30;99.90;;;;;;4966125;28;20176;-70
2022/10/06 03:11:38;;;;;;;3.47;3.17;;;10.30;99.90;;;;;;4965715;28;20223;-71
2022/10/06 03:14:04;;;;;;;8.17;3.60;;;10.30;99.90;;;;;;4966175;28;20607;-70
2022/10/06 03:16:32;;;;;;;3.60;3.30;;;10.20;99.90;;;;;;4965273;28;20790;-70
2022/10/06 03:18:59;;;;;;;5.13;3.23;;;10.20;99.90;;;;;;4966287;28;20733;-70
2022/10/06 03:21:30;;;;;;;4.97;3.37;;;10.20;99.90;;;;;;4965073;28;20446;-70
2022/10/06 03:23:57;;;;;;;6.17;3.57;;;10.20;99.90;;;;;;4958917;28;20437;-70
2022/10/06 03:26:28;;;;;;;8.50;3.80;;;10.20;99.90;;;;;;4965256;28;20419;-70
2022/10/06 03:28:55;;;;;;;6.70;3.97;;;10.20;99.90;;;;;;4962959;28;20418;-70
2022/10/06 03:31:20;;;;;;;7.77;4.27;;;10.20;99.90;;;;;;4965502;28;20541;-70
2022/10/06 03:33:46;;;;;;;8.17;3.30;;;10.20;99.90;;;;;;4965373;28;20521;-70
2022/10/06 03:36:18;;;;;;;4.33;3.83;;;10.20;99.90;;;;;;4965608;28;20219;-70
2022/10/06 03:38:43;;;;;;;5.37;3.60;;;10.20;99.90;;;;;;4964915;28;20733;-69
2022/10/06 03:41:18;;;;;;;5.60;2.90;;;10.20;99.90;;;;;;4966613;28;20445;-70
2022/10/06 03:43:45;;;;;;;10.00;3.90;;;10.20;99.90;;;;;;4964725;28;20215;-71
2022/10/06 03:46:12;;;;;;;10.43;3.87;;;10.20;99.90;;;;;;4965596;28;20784;-70
2022/10/06 03:48:38;;;;;;;5.53;3.60;;;10.20;99.90;;;;;;4968305;28;20849;-70
2022/10/06 03:51:10;;;;;;;8.23;4.00;;;10.20;99.90;;;;;;4965318;28;20513;-70
2022/10/06 03:53:36;;;;;;;5.70;4.00;;;10.20;99.90;;;;;;4964395;28;20195;-70
2022/10/06 03:56:13;;;;;;;5.97;3.33;;;10.20;99.90;;;;;;4965480;28;20506;-70
2022/10/06 03:58:42;;;;;;;5.30;3.87;;;10.20;99.90;;;;;;4964720;28;20420;-69
2022/10/06 04:01:17;;;;;;;6.53;4.07;;;10.20;99.90;;;;;;4965346;28;20493;-70
2022/10/06 04:03:44;;;;;;;4.67;3.23;;;10.20;99.90;;;;;;4964516;28;20963;-70
2022/10/06 04:06:12;;;;;;;5.60;3.10;;;10.20;99.90;;;;;;4965342;28;20422;-71
2022/10/06 04:08:39;;;;;;;18.13;3.90;;;10.30;99.90;;;;;;4963819;28;20427;-70
2022/10/06 04:11:11;;;;;;;8.67;3.60;;;10.30;99.90;;;;;;4965306;28;20442;-71
2022/10/06 04:13:38;;;;;;;5.07;3.50;;;10.30;99.90;;;;;;4963762;28;20433;-70
2022/10/06 04:16:23;;;;;;;5.57;3.43;;;10.40;99.90;;;;;;4964766;28;20791;-71
2022/10/06 04:18:53;;;;;;;5.60;3.07;;;10.40;99.90;;;;;;4965123;28;20430;-70
2022/10/06 04:21:19;;;;;;;8.40;3.33;;;10.40;99.90;;;;;;4963986;28;20458;-70
2022/10/06 04:23:44;;;;;;;9.07;5.47;;;10.50;99.90;;;;;;4964233;28;20991;-71
2022/10/06 04:26:16;;;;;;;11.47;6.97;;;10.50;99.90;;;;;;4964765;28;20513;-71
2022/10/06 04:28:43;;;;;;;8.40;5.23;;;10.50;99.90;;;;;;4964057;28;20181;-70
2022/10/06 04:31:24;;;;;;;7.60;3.97;;;10.60;99.90;;;;;;4964490;28;20457;-71
2022/10/06 04:33:51;;;;;;;7.17;4.50;;;10.60;99.90;;;;;;4964742;28;20810;-70
2022/10/06 04:36:22;;;;;;;4.70;4.23;;;10.60;99.90;;;;;;4964106;28;20470;-70
2022/10/06 04:38:55;;;;;;;10.23;4.60;;;10.70;99.90;;;;;;4964818;28;20422;-70
2022/10/06 04:41:21;;;;;;;4.87;3.87;;;10.70;99.90;;;;;;4963469;28;20882;-70
2022/10/06 04:43:48;;;;;;;5.30;4.07;;;10.70;99.90;;;;;;4964296;28;20609;-70
2022/10/06 04:46:15;;;;;;;8.83;4.50;;;10.70;99.90;;;;;;4964292;28;20427;-70
2022/10/06 04:48:40;;;;;;;7.83;4.50;;;10.70;99.90;;;;;;4967771;28;20506;-68
2022/10/06 04:51:12;;;;;;;5.37;4.60;;;10.70;99.90;;;;;;4964440;28;20975;-70
2022/10/06 04:53:38;;;;;;;7.63;3.63;;;10.80;99.90;;;;;;4962911;28;20198;-71
2022/10/06 04:56:12;;;;;;;8.57;4.10;;;10.80;99.90;;;;;;4964529;28;20916;-71
2022/10/06 04:58:40;;;;;;;5.70;3.90;;;10.90;99.90;;;;;;4962918;28;20192;-70
2022/10/06 05:01:15;;;;;;;6.00;3.70;;;11.00;99.90;;;;;;4964312;28;20443;-70
2022/10/06 05:03:41;;;;;;;4.70;4.00;;;11.00;99.90;;;;;;4963267;28;20463;-70
2022/10/06 05:06:31;;;;;;;4.70;4.30;;;11.10;99.90;;;;;;4964301;28;20430;-71
2022/10/06 05:08:59;;;;;;;6.60;4.50;;;11.20;99.90;;;;;;4958745;28;20192;-69
2022/10/06 05:11:25;;;;;;;6.93;4.07;;;11.20;99.90;;;;;;4962370;28;20489;-70
2022/10/06 05:13:53;;;;;;;6.57;4.17;;;11.30;99.90;;;;;;4959744;28;20414;-69
2022/10/06 05:16:20;;;;;;;9.37;4.93;;;11.40;99.90;;;;;;4963036;28;20447;-69
2022/10/06 05:18:46;;;;;;;7.67;4.70;;;11.40;99.90;;;;;;4963731;28;21000;-70
2022/10/06 05:21:11;;;;;;;6.77;4.77;;;11.50;99.90;;;;;;4963810;28;20523;-70
2022/10/06 05:23:39;;;;;;;4.77;4.00;;;11.60;99.90;;;;;;4961615;28;20287;-71
2022/10/06 05:26:05;;;;;;;10.33;4.43;;;11.60;99.90;;;;;;4964037;28;20180;-71
2022/10/06 05:28:31;;;;;;;3.70;3.20;;;11.70;99.90;;;;;;4961783;28;20785;-71
2022/10/06 05:31:04;;;;;;;4.90;4.47;;;11.80;99.90;;;;;;4963999;28;20454;-71
2022/10/06 05:33:33;;;;;;;4.67;4.13;;;11.80;99.90;;;;;;4961762;28;20450;-70
2022/10/06 05:36:04;;;;;;;6.20;4.20;;;11.90;99.90;;;;;;4964057;28;20419;-71
2022/10/06 05:38:29;;;;;;;5.50;3.83;;;11.90;99.90;;;;;;4961791;28;20429;-70
2022/10/06 05:41:15;;;;;;;11.60;3.90;;;12.00;99.90;;;;;;4964169;28;20845;-70
2022/10/06 05:43:41;;;;;;;14.77;4.17;;;12.00;99.90;;;;;;4962784;28;20312;-71
2022/10/06 05:46:16;;;;;;;4.20;3.80;;;12.10;99.90;;;;;;4963795;28;20502;-70
2022/10/06 05:48:43;;;;;;;3.90;3.60;;;12.10;99.90;;;;;;4967977;28;20218;-71
2022/10/06 05:51:09;;;;;;;8.50;4.73;;;12.20;99.90;;;;;;4963246;28;20441;-71
2022/10/06 05:53:35;;;;;;;4.50;4.10;;;12.20;99.90;;;;;;4961945;28;20897;-71
2022/10/06 05:56:18;;;;;;;6.70;4.43;;;12.30;99.90;;;;;;4963770;28;20256;-71
2022/10/06 05:58:46;;;;;;;4.43;4.07;;;12.40;99.90;;;;;;4963209;28;20454;-70
2022/10/06 06:01:13;;;;;;;6.87;5.03;;;12.40;99.90;;;;;;4965173;28;20487;-70
2022/10/06 06:03:41;;;;;;;5.50;4.40;;;12.40;99.90;;;;;;4963363;28;20455;-70
2022/10/06 06:06:19;;;;;;;9.23;4.53;;;12.50;99.90;;;;;;4969518;28;20420;-71
2022/10/06 06:08:45;;;;;;;8.50;3.80;;;12.50;99.90;;;;;;4966791;28;20426;-70
2022/10/06 06:11:11;;;;;;;4.47;3.87;;;12.60;99.90;;;;;;4968618;28;20443;-70
2022/10/06 06:13:37;;;;;;;5.90;3.70;;;12.60;99.90;;;;;;4965493;28;20511;-70
2022/10/06 06:16:05;;;;;;;15.80;5.37;;;12.70;99.90;;;;;;4969782;28;20196;-70
2022/10/06 06:18:32;;;;;;;5.73;3.80;;;12.70;99.90;;;;;;4964782;28;20185;-70
2022/10/06 06:21:04;;;;;;;12.80;4.07;;;12.80;99.90;;;;;;4970208;28;20474;-70
2022/10/06 06:23:34;;;;;;;5.10;3.63;;;12.80;99.90;;;;;;4964604;28;20830;-71
2022/10/06 06:26:03;;;;;;;10.03;4.03;;;12.90;99.90;;;;;;4969940;28;20428;-70
2022/10/06 06:28:29;;;;;;;9.83;5.00;;;13.00;99.90;;;;;;4964376;28;20431;-71
2022/10/06 06:31:11;;;;;;;5.80;4.20;;;13.00;99.90;;;;;;4970417;28;20428;-71
2022/10/06 06:33:39;;;;;;;5.00;4.40;;;13.10;99.90;;;;;;4965713;28;20948;-71
2022/10/06 06:36:14;;;;;;;7.67;4.33;;;13.20;99.90;;;;;;4968787;28;20425;-70
2022/10/06 06:38:40;;;;;;;5.90;4.33;;;13.30;99.90;;;;;;4965535;28;20428;-71
2022/10/06 06:41:21;;;;;;;6.90;4.00;;;13.30;99.90;;;;;;4967937;28;20444;-71
2022/10/06 06:43:48;;;;;;;9.43;4.97;;;13.40;99.90;;;;;;4966119;28;21182;-70
2022/10/06 06:46:16;;;;;;;7.07;4.10;;;13.50;99.90;;;;;;4967097;28;20496;-71
2022/10/06 06:48:42;;;;;;;10.03;4.70;;;13.60;99.90;;;;;;4971962;28;20419;-70
2022/10/06 06:51:12;;;;;;;8.37;4.50;;;13.70;99.90;;;;;;4967917;28;20443;-71
2022/10/06 06:53:39;;;;;;;11.00;4.50;;;13.80;99.90;;;;;;4964599;28;20460;-71
2022/10/06 06:56:07;;;;;;;7.90;4.40;;;13.90;99.90;;;;;;4967854;28;20417;-70
2022/10/06 06:58:33;;;;;;;9.63;5.47;;;14.00;99.90;;;;;;4964741;28;20420;-70
2022/10/06 07:01:07;;;;;;;17.57;4.67;;;14.10;99.90;;;;;;4968636;28;20450;-71
2022/10/06 07:03:33;;;;;;;5.53;3.50;;;14.30;99.90;;;;;;4963842;28;20463;-71
2022/10/06 07:06:07;;;;;;;6.90;4.17;;;14.40;99.90;;;;;;4964389;28;20852;-71
2022/10/06 07:08:33;;;;;;;7.90;4.00;;;14.60;99.90;;;;;;4963828;28;20492;-71
2022/10/06 07:10:59;;;;;;;8.43;4.60;;;14.70;99.90;;;;;;4968559;28;20847;-71
2022/10/06 07:13:24;;;;;;;4.43;4.03;;;14.90;99.90;;;;;;4963033;28;20676;-71
2022/10/06 07:26:47;;;;;;;3.83;3.40;;;15.50;99.90;;;;;;4965320;28;20568;-71
2022/10/06 07:29:13;;;;;;;7.00;3.00;;;15.60;99.90;;;;;;4965427;28;20419;-71
2022/10/06 07:31:42;;;;;;;4.23;3.50;;;15.70;99.90;;;;;;4968776;28;20462;-72
2022/10/06 07:34:07;;;;;;;12.67;3.47;;;15.80;99.90;;;;;;4963965;28;20525;-71
2022/10/06 07:36:33;;;;;;;5.93;2.10;;;15.90;99.90;;;;;;4962408;28;20435;-72
2022/10/06 07:38:58;;;;;;;3.87;1.83;;;15.90;99.90;;;;;;4969775;28;20180;-71
2022/10/06 07:41:25;;;;;;;3.03;2.20;;;15.90;99.90;;;;;;4962494;28;20220;-71
2022/10/06 07:43:52;;;;;;;7.30;3.10;;;15.90;99.90;;;;;;4969898;28;20270;-71
2022/10/06 07:46:18;;;;;;;5.20;2.77;;;15.90;99.90;;;;;;4961979;28;20531;-71
2022/10/06 07:48:46;;;;;;;7.80;2.63;;;16.00;99.90;;;;;;4970370;28;20419;-71
2022/10/06 07:51:17;;;;;;;9.10;3.00;;;16.00;99.90;;;;;;4964137;28;20451;-71
2022/10/06 07:53:49;;;;;;;7.63;2.60;;;16.00;99.90;;;;;;4969877;28;20510;-71
2022/10/06 07:56:16;;;;;;;4.10;2.70;;;16.00;99.90;;;;;;4962013;28;20432;-70
2022/10/06 07:58:43;;;;;;;6.63;2.90;;;15.90;99.90;;;;;;4969067;28;20414;-70
2022/10/06 08:01:11;;;;;;;7.03;2.60;;;16.00;99.90;;;;;;4960907;28;20416;-71
2022/10/06 08:03:38;;;;;;;8.63;2.50;;;16.00;99.90;;;;;;4969292;28;20211;-71
2022/10/06 08:06:04;;;;;;;6.60;2.30;;;16.10;99.90;;;;;;4961698;28;20443;-71
2022/10/06 08:08:31;;;;;;;2.63;1.93;;;16.10;99.90;;;;;;4969414;28;21160;-71
2022/10/06 08:10:58;;;;;;;13.53;2.00;;;16.10;99.90;;;;;;4961815;28;20444;-71
2022/10/06 08:13:24;;;;;;;4.30;1.87;;;16.10;99.90;;;;;;4968510;28;20525;-71
2022/10/06 08:15:50;;;;;;;7.30;2.20;;;16.20;99.90;;;;;;4963718;28;20423;-71
2022/10/06 08:18:17;;;;;;;3.27;2.37;;;16.20;99.90;;;;;;4967271;28;20419;-71
2022/10/06 08:20:44;;;;;;;3.47;1.60;;;16.10;99.90;;;;;;4964517;28;20470;-71
2022/10/06 08:23:10;;;;;;;12.30;2.23;;;16.10;99.90;;;;;;4966057;28;20454;-71
2022/10/06 08:25:41;;;;;;;10.00;2.70;;;16.20;99.90;;;;;;4963992;28;20419;-71
2022/10/06 08:28:07;;;;;;;7.17;1.93;;;16.20;99.90;;;;;;4958327;28;20414;-71
2022/10/06 08:30:33;;;;;;;5.43;2.33;;;16.20;99.90;;;;;;4964120;28;20430;-70
2022/10/06 08:32:59;;;;;;;7.80;2.50;;;16.20;99.90;;;;;;4963990;28;20426;-71
2022/10/06 08:35:24;;;;;;;5.47;2.07;;;16.20;99.90;;;;;;4964844;28;20422;-71
2022/10/06 08:37:51;;;;;;;5.10;1.90;;;16.30;99.90;;;;;;4962714;28;20179;-71
2022/10/06 08:40:17;;;;;;;4.03;1.60;;;16.30;99.90;;;;;;4964926;28;20238;-71
2022/10/06 08:42:47;;;;;;;6.20;1.53;;;16.40;99.90;;;;;;4962210;28;20467;-71
2022/10/06 08:45:23;;;;;;;7.40;1.80;;;16.50;99.90;;;;;;4964735;28;20190;-71
2022/10/06 08:48:09;;;;;;;6.50;1.77;;;16.50;99.90;;;;;;4964764;28;20877;-70
2022/10/06 08:50:48;;;;;;;2.40;1.37;;;16.60;99.90;;;;;;4963178;28;20423;-70
2022/10/06 08:53:28;;;;;;;9.40;1.90;;;16.50;99.90;;;;;;4964558;28;20430;-71
2022/10/06 08:56:16;;;;;;;6.57;1.70;;;16.60;99.90;;;;;;4964442;28;20481;-70
2022/10/06 08:58:50;;;;;;;2.50;1.10;;;16.60;99.90;;;;;;4962814;28;20430;-71
2022/10/06 09:01:19;;;;;;;4.83;1.30;;;16.60;99.90;;;;;;4967507;28;20815;-71
2022/10/06 09:03:47;;;;;;;2.77;1.30;;;16.60;99.90;;;;;;4962058;28;20454;-71
2022/10/06 09:06:36;;;;;;;2.57;1.17;;;16.60;99.90;;;;;;4966748;28;20439;-72
2022/10/06 09:09:20;;;;;;;4.43;1.53;;;16.70;99.90;;;;;;4961090;28;20440;-72
2022/10/06 09:12:05;;;;;;;3.73;1.30;;;16.70;99.90;;;;;;4968401;28;20518;-71
2022/10/06 09:14:36;;;;;;;2.60;1.00;;;16.70;99.90;;;;;;4961549;28;20519;-70
2022/10/06 09:17:06;;;;;;;3.70;1.63;;;16.80;99.90;;;;;;4965892;28;20439;-71
2022/10/06 09:20:00;;;;;;;6.77;1.60;;;16.80;99.90;;;;;;4961413;28;20428;-70
2022/10/06 09:22:29;;;;;;;3.17;1.57;;;17.00;99.90;;;;;;4959907;28;20525;-71
2022/10/06 09:25:12;;;;;;;2.60;1.27;;;17.20;99.90;;;;;;4958796;28;21179;-71
2022/10/06 09:27:40;;;;;;;1.60;1.33;;;17.40;99.90;;;;;;4963650;28;20440;-71
2022/10/06 09:30:10;;;;;;;2.30;1.10;;;17.70;99.90;;;;;;4964344;28;20952;-71
2022/10/06 09:32:39;;;;;;;1.60;1.47;;;17.90;99.90;;;;;;4959480;28;20472;-71
2022/10/06 09:35:19;;;;;;;4.43;1.03;;;17.90;99.90;;;;;;4964231;28;20517;-71
2022/10/06 09:37:55;;;;;;;7.20;2.23;;;17.90;99.90;;;;;;4963199;28;20422;-71
2022/10/06 09:40:45;;;;;;;2.67;1.03;;;18.10;99.90;;;;;;4967994;28;20854;-71
2022/10/06 09:43:15;;;;;;;2.93;1.10;;;18.00;99.90;;;;;;4966656;28;21006;-72
2022/10/06 09:45:41;;;;;;;4.77;1.37;;;17.90;99.90;;;;;;4966496;28;20772;-70
2022/10/06 09:48:12;;;;;;;8.00;1.57;;;17.90;99.90;;;;;;4971470;28;20466;-71
2022/10/06 09:50:38;;;;;;;4.73;2.00;;;17.80;99.90;;;;;;4965504;28;20638;-71
2022/10/06 09:53:09;;;;;;;6.47;1.67;;;17.90;99.90;;;;;;4967131;28;20555;-71
2022/10/06 09:55:38;;;;;;;1.70;0.90;;;18.00;99.90;;;;;;4965797;28;20569;-71
2022/10/06 09:58:19;;;;;;;2.13;1.70;;;18.10;99.90;;;;;;4968622;28;20433;-71
2022/10/06 10:00:47;;;;;;;4.97;1.00;;;18.00;99.90;;;;;;4966582;28;20503;-71
2022/10/06 10:03:12;;;;;;;3.60;0.93;;;18.10;99.90;;;;;;4966942;28;20459;-71
2022/10/06 10:05:50;;;;;;;4.33;1.47;;;18.20;99.90;;;;;;4963937;28;20451;-70
2022/10/06 10:08:24;;;;;;;5.00;1.17;;;18.30;99.90;;;;;;4967510;28;20384;-71
2022/10/06 10:13:58;;;;;;;10.63;1.47;;;18.30;99.90;;;;;;4964027;28;20415;-70
2022/10/06 10:16:33;;;;;;;1.83;1.13;;;18.40;99.90;;;;;;4968839;28;20936;-71
2022/10/06 10:19:00;;;;;;;6.83;1.20;;;18.80;99.90;;;;;;4967957;28;20625;-71
2022/10/06 10:21:29;;;;;;;2.17;1.10;;;19.20;99.90;;;;;;4967076;28;20471;-71
2022/10/06 10:24:01;;;;;;;1.83;0.90;;;19.50;99.90;;;;;;4967142;28;20995;-71
2022/10/06 10:26:52;;;;;;;3.87;1.53;;;19.70;99.90;;;;;;4967040;28;20423;-71
2022/10/06 10:29:21;;;;;;;5.10;1.13;;;19.70;99.90;;;;;;4970125;28;20426;-71
2022/10/06 10:32:19;;;;;;;5.97;1.00;;;19.80;99.90;;;;;;4964247;28;20461;-71
2022/10/06 10:34:58;;;;;;;4.97;1.17;;;19.90;99.90;;;;;;4971206;28;20490;-71
2022/10/06 10:37:44;;;;;;;2.33;1.00;;;20.20;99.90;;;;;;4963615;28;20511;-72
2022/10/06 10:40:30;;;;;;;5.77;1.80;;;20.50;99.90;;;;;;4963708;28;20412;-71
2022/10/06 10:43:24;;;;;;;2.10;1.03;;;20.90;99.90;;;;;;4960922;28;20583;-71
2022/10/06 10:46:05;;;;;;;5.90;1.00;;;21.00;99.90;;;;;;4966129;28;20781;-71
2022/10/06 10:48:41;;;;;;;4.57;1.00;;;21.70;99.90;;;;;;4972179;28;20521;-71
2022/10/06 10:51:20;;;;;;;4.50;1.00;;;22.40;99.90;;;;;;4966987;28;20434;-72
2022/10/06 10:53:50;;;;;;;3.70;0.97;;;22.10;99.90;;;;;;4964243;28;20794;-71
2022/10/06 10:56:20;;;;;;;2.90;1.13;;;22.30;99.90;;;;;;4968090;28;20431;-72
2022/10/06 10:58:49;;;;;;;5.00;1.40;;;21.90;99.90;;;;;;4964197;28;20427;-71
2022/10/06 11:01:38;;;;;;;5.93;1.20;;;21.60;99.90;;;;;;4967769;28;20550;-71
2022/10/06 11:04:09;;;;;;;3.93;1.10;;;21.60;99.90;;;;;;4963167;28;20463;-72
2022/10/06 11:06:46;;;;;;;3.63;1.03;;;21.70;99.90;;;;;;4969120;28;20427;-71
2022/10/06 11:09:17;;;;;;;5.30;1.93;;;22.20;99.90;;;;;;4963092;28;20420;-71
2022/10/06 11:12:26;;;;;;;4.00;1.00;;;22.40;99.90;;;;;;4969210;28;20527;-72
2022/10/06 11:15:36;;;;;;;6.17;1.00;;;22.20;99.90;;;;;;4966021;28;20466;-72
2022/10/06 11:18:17;;;;;;;1.70;0.80;;;21.80;99.90;;;;;;4962649;28;20416;-71
2022/10/06 11:21:02;;;;;;;6.03;1.83;;;22.10;99.90;;;;;;4962952;28;20455;-73
2022/10/06 11:23:34;;;;;;;5.53;1.20;;;22.50;99.90;;;;;;4966264;28;20995;-72
2022/10/06 11:26:24;;;;;;;9.03;1.30;;;22.70;99.90;;;;;;4964486;28;20429;-73
2022/10/06 11:29:14;;;;;;;3.10;1.10;;;22.10;99.90;;;;;;4963153;28;20416;-73
2022/10/06 11:31:45;;;;;;;7.80;1.20;;;21.40;99.90;;;;;;4968266;28;20487;-73
2022/10/06 11:34:11;;;;;;;2.20;0.80;;;21.10;99.90;;;;;;4962986;28;20427;-73
2022/10/06 11:37:01;;;;;;;5.63;0.90;;;20.80;99.90;;;;;;4968659;28;20423;-72
2022/10/06 11:39:36;;;;;;;3.57;1.47;;;20.30;99.90;;;;;;4963046;28;20428;-72
2022/10/06 11:42:39;;;;;;;7.50;1.40;;;20.10;99.90;;;;;;4961268;28;20455;-72
2022/10/06 11:45:15;;;;;;;1.87;0.80;;;20.30;99.90;;;;;;4958546;28;20939;-72
2022/10/06 11:48:09;;;;;;;3.07;0.93;;;20.30;99.90;;;;;;4968567;28;20876;-73
2022/10/06 11:50:37;;;;;;;6.60;1.23;;;20.10;99.90;;;;;;4963473;28;20464;-71
2022/10/06 11:53:26;;;;;;;5.30;1.03;;;20.10;99.90;;;;;;4965645;28;20497;-73
2022/10/06 11:56:16;;;;;;;7.00;0.87;;;20.20;99.90;;;;;;4964986;28;20419;-73
2022/10/06 11:58:51;;;;;;;4.47;0.90;;;20.00;99.90;;;;;;4964840;28;20419;-72
2022/10/06 12:01:38;;;;;;;4.10;1.23;;;19.90;99.90;;;;;;4964892;28;20438;-72
2022/10/06 12:04:18;;;;;;;3.63;1.20;;;19.90;99.90;;;;;;4965707;28;20828;-72
2022/10/06 12:06:44;;;;;;;3.23;1.00;;;19.80;99.90;;;;;;4963023;28;20430;-72
2022/10/06 12:09:32;;;;;;;7.33;1.27;;;19.80;99.90;;;;;;4966522;28;20422;-72
2022/10/06 12:12:18;;;;;;;10.60;1.27;;;19.80;99.90;;;;;;4961992;28;20455;-72
2022/10/06 12:15:15;;;;;;;12.17;1.60;;;19.80;99.90;;;;;;4968871;28;20784;-72
2022/10/06 12:18:43;;;;;;;5.03;1.00;;;19.80;99.90;;;;;;4963158;28;20412;-72
2022/10/06 12:21:13;;;;;;;6.20;1.50;;;19.70;99.90;;;;;;4924212;29;20448;-72
2022/10/06 12:24:02;;;;;;;4.67;1.33;;;20.10;99.90;;;;;;4923148;29;20589;-72
2022/10/06 12:26:43;;;;;;;4.17;1.30;;;20.30;99.90;;;;;;4950859;28;20435;-72
2022/10/06 12:29:34;;;;;;;5.80;0.70;;;20.40;99.90;;;;;;4966014;28;20783;-73
2022/10/06 12:32:13;;;;;;;4.20;1.53;;;20.70;99.90;;;;;;4961284;28;20483;-73
2022/10/06 12:34:38;;;;;;;9.20;1.30;;;21.00;99.90;;;;;;4968600;28;20423;-72
2022/10/06 12:37:30;;;;;;;5.03;1.57;;;21.40;99.90;;;;;;4961181;28;20435;-72
2022/10/06 12:40:33;;;;;;;4.37;1.10;;;21.60;99.90;;;;;;4962634;28;20542;-72
2022/10/06 12:43:18;;;;;;;4.27;1.77;;;21.70;99.90;;;;;;4958123;28;20828;-72
2022/10/06 12:45:58;;;;;;;3.47;1.00;;;21.70;99.90;;;;;;4967640;28;20428;-73
2022/10/06 12:48:51;;;;;;;3.37;1.10;;;21.70;99.90;;;;;;4970725;28;20446;-72
2022/10/06 12:51:33;;;;;;;4.87;1.20;;;21.50;99.90;;;;;;4963584;28;20489;-73
2022/10/06 12:54:04;;;;;;;3.50;1.07;;;21.30;99.90;;;;;;4963866;28;20578;-72
2022/10/06 12:56:36;;;;;;;1.40;0.83;;;21.00;99.90;;;;;;4964414;28;20516;-72
2022/10/06 12:59:23;;;;;;;9.43;1.13;;;20.80;99.90;;;;;;4964342;28;20423;-73
2022/10/06 13:01:52;;;;;;;6.70;1.33;;;20.60;99.90;;;;;;4954744;28;20471;-74
2022/10/06 13:04:39;;;;;;;3.10;1.40;;;20.50;99.90;;;;;;4965946;28;20510;-72
2022/10/06 13:07:17;;;;;;;6.53;1.03;;;20.40;99.90;;;;;;4963422;28;20451;-72
2022/10/06 13:09:43;;;;;;;4.83;1.20;;;20.30;99.90;;;;;;4962202;28;20515;-71
2022/10/06 13:12:21;;;;;;;7.93;1.53;;;20.30;99.90;;;;;;4968329;28;20947;-73
2022/10/06 13:14:47;;;;;;;4.87;1.70;;;20.10;99.90;;;;;;4966720;28;20943;-72
2022/10/06 13:17:13;;;;;;;3.13;1.00;;;20.00;99.90;;;;;;4965544;28;21036;-72
2022/10/06 13:19:42;;;;;;;3.77;0.90;;;19.90;99.90;;;;;;4965713;28;20468;-73
2022/10/06 13:22:11;;;;;;;4.50;1.23;;;19.60;99.90;;;;;;4968428;28;20216;-72
2022/10/06 13:24:37;;;;;;;1.93;1.10;;;19.60;99.90;;;;;;4965042;28;20482;-72
2022/10/06 13:27:03;;;;;;;6.43;1.20;;;19.50;99.90;;;;;;4968173;28;20432;-72
2022/10/06 13:29:30;;;;;;;3.40;1.13;;;19.50;99.90;;;;;;4963727;28;20451;-72
2022/10/06 13:31:56;;;;;;;4.17;1.10;;;19.60;99.90;;;;;;4969046;28;20211;-70
2022/10/06 13:34:27;;;;;;;15.53;2.30;;;19.60;99.90;;;;;;4964316;28;20447;-73
2022/10/06 13:36:53;;;;;;;8.77;1.90;;;19.60;99.90;;;;;;4969187;28;20240;-72
2022/10/06 13:39:24;;;;;;;4.33;1.00;;;19.50;99.90;;;;;;4964107;28;20472;-72
2022/10/06 13:41:54;;;;;;;4.07;1.60;;;19.50;99.90;;;;;;4969029;28;20273;-72
2022/10/06 13:44:40;;;;;;;4.20;1.43;;;19.50;99.90;;;;;;4964004;28;20499;-72
2022/10/06 13:47:15;;;;;;;3.20;1.60;;;19.50;99.90;;;;;;4966933;28;20534;-72
2022/10/06 13:49:51;;;;;;;4.43;1.50;;;19.40;99.90;;;;;;4972217;28;20459;-71
2022/10/06 13:52:43;;;;;;;15.50;1.60;;;19.30;99.90;;;;;;4963399;28;21012;-72
2022/10/06 13:55:35;;;;;;;2.80;0.80;;;19.30;99.90;;;;;;4963556;28;20440;-72
2022/10/06 13:58:00;;;;;;;5.10;0.97;;;19.30;99.90;;;;;;4959350;28;20443;-70
2022/10/06 14:00:29;;;;;;;15.57;2.20;;;19.20;99.90;;;;;;4966129;28;20502;-70
2022/10/06 14:03:06;;;;;;;5.17;1.30;;;19.20;99.90;;;;;;4959751;28;20274;-69
2022/10/06 14:05:43;;;;;;;3.67;1.13;;;19.20;99.90;;;;;;4965240;28;20442;-72
2022/10/06 14:08:08;;;;;;;3.93;1.30;;;19.10;99.90;;;;;;4969737;28;20415;-72
2022/10/06 14:10:41;;;;;;;7.40;1.63;;;19.00;99.90;;;;;;4963572;28;20416;-72
2022/10/06 14:13:13;;;;;;;3.43;1.10;;;18.90;99.90;;;;;;4974621;28;20191;-72
2022/10/06 14:15:48;;;;;;;2.40;1.30;;;19.10;99.90;;;;;;4968892;28;20416;-72
2022/10/06 14:18:27;;;;;;;6.87;1.20;;;19.20;99.90;;;;;;4967612;28;20442;-72
2022/10/06 14:20:55;;;;;;;1.80;1.03;;;19.20;99.90;;;;;;4967330;28;20419;-72
2022/10/06 14:23:33;;;;;;;10.33;1.13;;;19.30;99.90;;;;;;4966780;28;20467;-72
2022/10/06 14:25:59;;;;;;;3.47;1.50;;;19.40;99.90;;;;;;4963549;28;20427;-72
2022/10/06 14:28:25;;;;;;;9.00;1.10;;;19.40;99.90;;;;;;4965759;28;20507;-72
2022/10/06 14:30:52;;;;;;;11.73;1.60;;;19.20;99.90;;;;;;4966482;28;20207;-72
2022/10/06 14:33:18;;;;;;;6.43;1.30;;;19.20;99.90;;;;;;4966528;28;20226;-72
2022/10/06 14:35:44;;;;;;;4.83;1.53;;;19.10;99.90;;;;;;4965819;28;20412;-72
2022/10/06 14:38:09;;;;;;;14.30;1.93;;;19.20;99.90;;;;;;4967191;28;20188;-72
2022/10/06 14:40:39;;;;;;;6.60;1.37;;;19.10;99.90;;;;;;4964448;28;20432;-68
2022/10/06 14:43:05;;;;;;;2.17;1.30;;;19.00;99.90;;;;;;4966757;28;20208;-72
2022/10/06 14:45:32;;;;;;;5.67;1.43;;;18.90;99.90;;;;;;4964397;28;20559;-72
2022/10/06 14:47:58;;;;;;;5.17;1.10;;;18.80;99.90;;;;;;4971020;28;20716;-72
2022/10/06 14:50:29;;;;;;;5.33;1.50;;;18.80;99.90;;;;;;4963640;28;20503;-72
2022/10/06 14:52:57;;;;;;;4.00;1.40;;;18.70;99.90;;;;;;4963278;28;20629;-71
2022/10/06 14:55:26;;;;;;;4.30;1.20;;;18.60;99.90;;;;;;4963439;28;20432;-71